Time;durP1;ratioP1;P1;durP2;ratioP2;P2;SDS_P1;SDS_P2;PMS_P1;PMS_P2;Temp;Humidity;BMP_temperature;BMP_pressure;BME280_temperature;BME280_humidity;BME280_pressure;Samples;Min_cycle;Max_cycle;Signal;HPM_P1;HPM_P2
2022/08/10 00:00:19;;;;;;;;;;;;;;;17.41;100.00;102907.31;5094341;28;19927;-31
2022/08/10 00:02:17;;;;;;;;;;;;;;;17.40;100.00;102904.81;5093767;28;20365;-31
2022/08/10 00:04:44;;;;;;;;;;;;;;;17.37;100.00;102908.25;5094559;28;19920;-36
2022/08/10 00:07:12;;;;;;;;;;;;;;;17.35;100.00;102908.53;5094572;28;19920;-42
2022/08/10 00:09:39;;;;;;;;;;;;;;;17.34;100.00;102904.03;5095014;28;20355;-31
2022/08/10 00:12:18;;;;;;;;;;;;;;;17.33;100.00;102905.16;5094123;28;19920;-32
2022/08/10 00:14:46;;;;;;;;;;;;;;;17.32;100.00;102902.63;5095017;28;20018;-42
2022/08/10 00:17:13;;;;;;;;;;;;;;;17.31;100.00;102901.78;5094643;28;19926;-31
2022/08/10 00:19:42;;;;;;;;;;;;;;;17.30;100.00;102902.06;5093971;28;20300;-31
2022/08/10 00:22:30;;;;;;;;;;;;;;;17.29;100.00;102900.41;5093619;28;19928;-35
2022/08/10 00:24:58;;;;;;;;;;;;;;;17.27;100.00;102902.66;5094744;28;19920;-32
2022/08/10 00:27:25;;;;;;;;;;;;;;;17.25;100.00;102908.59;5093729;28;19986;-33
2022/08/10 00:30:13;;;;;;;;;;;;;;;17.24;100.00;102906.91;5074339;28;19921;-36
2022/08/10 00:32:41;;;;;;;;;;;;;;;17.24;100.00;102906.91;5089676;28;20381;-32
2022/08/10 00:35:10;;;;;;;;;;;;;;;17.21;100.00;102901.84;5094101;28;20408;-31
2022/08/10 00:37:38;;;;;;;;;;;;;;;17.19;100.00;102898.47;5094109;28;19920;-32
2022/08/10 00:40:06;;;;;;;;;;;;;;;17.18;100.00;102896.84;5093740;28;20290;-36
2022/08/10 00:42:34;;;;;;;;;;;;;;;17.17;100.00;102895.13;5093794;28;19927;-34
2022/08/10 00:45:02;;;;;;;;;;;;;;;17.16;100.00;102894.31;5094146;28;19920;-32
2022/08/10 00:47:30;;;;;;;;;;;;;;;17.15;100.00;102886.97;5092904;28;19926;-31
2022/08/10 00:50:05;;;;;;;;;;;;;;;17.16;100.00;102887.81;5094368;28;19961;-36
2022/08/10 00:52:34;;;;;;;;;;;;;;;17.14;100.00;102890.94;5093661;28;20365;-33
2022/08/10 00:55:03;;;;;;;;;;;;;;;17.13;100.00;102889.25;5093314;28;20406;-31
2022/08/10 00:57:32;;;;;;;;;;;;;;;17.11;100.00;102896.31;5093552;28;20014;-34
2022/08/10 00:59:59;;;;;;;;;;;;;;;17.10;100.00;102903.09;5094156;28;19935;-43
2022/08/10 01:02:28;;;;;;;;;;;;;;;17.07;100.00;102890.41;5092931;28;19949;-31
2022/08/10 01:04:56;;;;;;;;;;;;;;;17.05;100.00;102897.47;5093980;28;20293;-31
2022/08/10 01:07:35;;;;;;;;;;;;;;;17.02;100.00;102898.91;5093647;28;19920;-31
2022/08/10 01:10:11;;;;;;;;;;;;;;;16.98;100.00;102905.44;5092858;28;19920;-31
2022/08/10 01:12:44;;;;;;;;;;;;;;;16.95;100.00;102894.75;5093474;28;20290;-38
2022/08/10 01:15:16;;;;;;;;;;;;;;;16.91;100.00;102888.84;5093138;28;19952;-40
2022/08/10 01:17:48;;;;;;;;;;;;;;;16.88;100.00;102886.59;5093382;28;20349;-31
2022/08/10 01:20:21;;;;;;;;;;;;;;;16.83;100.00;102886.63;5093328;28;19920;-31
2022/08/10 01:23:11;;;;;;;;;;;;;;;16.79;100.00;102886.38;5092573;28;19920;-35
2022/08/10 01:25:50;;;;;;;;;;;;;;;16.75;100.00;102875.97;5082568;28;20487;-33
2022/08/10 01:28:46;;;;;;;;;;;;;;;16.72;100.00;102888.69;5093064;28;19927;-31
2022/08/10 01:31:17;;;;;;;;;;;;;;;16.68;100.00;102881.94;5093038;28;19927;-32
2022/08/10 01:33:47;;;;;;;;;;;;;;;16.66;100.00;102881.38;5092980;28;19942;-40
2022/08/10 01:36:29;;;;;;;;;;;;;;;16.64;100.00;102879.97;5092857;28;19920;-32
2022/08/10 01:39:01;;;;;;;;;;;;;;;16.62;100.00;102879.41;5092992;28;19920;-33
2022/08/10 01:41:36;;;;;;;;;;;;;;;16.60;100.00;102881.66;5093342;28;19935;-32
2022/08/10 01:44:14;;;;;;;;;;;;;;;16.58;100.00;102886.78;5092407;28;19927;-31
2022/08/10 01:46:50;;;;;;;;;;;;;;;16.56;100.00;102884.25;5093127;28;19920;-38
2022/08/10 01:49:24;;;;;;;;;;;;;;;16.53;100.00;102891.31;5092755;28;19931;-32
2022/08/10 01:51:52;;;;;;;;;;;;;;;16.52;100.00;102883.13;5092513;28;19920;-37
2022/08/10 01:54:22;;;;;;;;;;;;;;;16.51;100.00;102884.25;5092962;28;19923;-32
2022/08/10 01:56:53;;;;;;;;;;;;;;;16.47;100.00;102886.81;5092966;28;19924;-31
2022/08/10 01:59:29;;;;;;;;;;;;;;;16.47;100.00;102883.16;5092053;28;19951;-34
2022/08/10 02:02:01;;;;;;;;;;;;;;;16.43;100.00;102877.25;5082492;28;19924;-33
2022/08/10 02:04:29;;;;;;;;;;;;;;;16.43;100.00;102879.22;5092281;28;19924;-32
2022/08/10 02:06:57;;;;;;;;;;;;;;;16.40;100.00;102879.78;5092439;28;19920;-34
2022/08/10 02:09:26;;;;;;;;;;;;;;;16.40;100.00;102882.63;5092495;28;19935;-39
2022/08/10 02:11:55;;;;;;;;;;;;;;;16.39;100.00;102881.78;5091860;28;19920;-32
2022/08/10 02:14:36;;;;;;;;;;;;;;;16.37;100.00;102874.75;5092460;28;19923;-37
2022/08/10 02:17:07;;;;;;;;;;;;;;;16.33;100.00;102873.66;5092851;28;19924;-32
2022/08/10 02:19:56;;;;;;;;;;;;;;;16.33;100.00;102882.09;5091745;28;20289;-35
2022/08/10 02:22:25;;;;;;;;;;;;;;;16.30;100.00;102880.69;5091201;28;19920;-32
2022/08/10 02:25:06;;;;;;;;;;;;;;;16.28;100.00;102891.41;5092375;28;20380;-32
2022/08/10 02:27:35;;;;;;;;;;;;;;;16.27;100.00;102892.53;5091896;28;19955;-38
2022/08/10 02:30:04;;;;;;;;;;;;;;;16.25;100.00;102889.16;5092367;28;19921;-32
2022/08/10 02:32:34;;;;;;;;;;;;;;;16.26;100.00;102890.00;5091622;28;19920;-29
2022/08/10 02:35:06;;;;;;;;;;;;;;;16.27;100.00;102894.53;5092469;28;19920;-31
2022/08/10 02:37:34;;;;;;;;;;;;;;;16.26;100.00;102890.00;5092262;28;19926;-39
2022/08/10 02:40:01;;;;;;;;;;;;;;;16.26;100.00;102887.19;5091880;28;19928;-33
2022/08/10 02:42:33;;;;;;;;;;;;;;;16.25;100.00;102883.53;5092020;28;20011;-32
2022/08/10 02:45:28;;;;;;;;;;;;;;;16.25;100.00;102886.34;5095126;28;19931;-39
2022/08/10 02:48:01;;;;;;;;;;;;;;;16.25;100.00;102888.31;5075379;28;20393;-32
2022/08/10 02:50:30;;;;;;;;;;;;;;;16.23;100.00;102888.63;5077109;28;19921;-40
2022/08/10 02:53:00;;;;;;;;;;;;;;;16.24;100.00;102884.66;5095344;28;20393;-38
2022/08/10 02:55:31;;;;;;;;;;;;;;;16.24;100.00;102881.84;5095854;28;19919;-36
2022/08/10 02:58:05;;;;;;;;;;;;;;;16.23;100.00;102882.13;5096059;28;19935;-31
2022/08/10 03:00:46;;;;;;;;;;;;;;;16.24;100.00;102883.81;5095768;28;20018;-31
2022/08/10 03:03:19;;;;;;;;;;;;;;;16.24;100.00;102881.00;5095669;28;19920;-31
2022/08/10 03:05:49;;;;;;;;;;;;;;;16.24;100.00;102878.19;5096523;28;20285;-32
2022/08/10 03:08:19;;;;;;;;;;;;;;;16.22;100.00;102886.94;5095103;28;19920;-33
2022/08/10 03:10:47;;;;;;;;;;;;;;;16.21;100.00;102876.78;5095808;28;19964;-32
2022/08/10 03:13:17;;;;;;;;;;;;;;;16.20;100.00;102878.75;5095852;28;19920;-31
2022/08/10 03:15:45;;;;;;;;;;;;;;;16.22;100.00;102877.63;5095379;28;19955;-31
2022/08/10 03:18:13;;;;;;;;;;;;;;;16.19;100.00;102873.41;5094720;28;19949;-39
2022/08/10 03:20:43;;;;;;;;;;;;;;;16.19;100.00;102862.16;5093690;28;20292;-31
2022/08/10 03:23:12;;;;;;;;;;;;;;;16.18;100.00;102869.78;5093435;28;20010;-34
2022/08/10 03:25:41;;;;;;;;;;;;;;;16.18;100.00;102866.97;5094234;28;20369;-37
2022/08/10 03:28:22;;;;;;;;;;;;;;;16.22;100.00;102866.34;5094275;28;19920;-36
2022/08/10 03:30:49;;;;;;;;;;;;;;;16.23;100.00;102863.25;5094295;28;19967;-31
2022/08/10 03:33:18;;;;;;;;;;;;;;;16.23;100.00;102862.41;5094606;28;20373;-39
2022/08/10 03:35:47;;;;;;;;;;;;;;;16.24;100.00;102861.28;5094684;28;19990;-32
2022/08/10 03:38:34;;;;;;;;;;;;;;;16.24;100.00;102864.09;5095008;28;20480;-34
2022/08/10 03:41:03;;;;;;;;;;;;;;;16.25;100.00;102863.81;5095575;28;19928;-31
2022/08/10 03:43:32;;;;;;;;;;;;;;;16.29;100.00;102864.09;5093443;28;19920;-32
2022/08/10 03:46:03;;;;;;;;;;;;;;;16.31;100.00;102861.81;5095045;28;19920;-39
2022/08/10 03:48:32;;;;;;;;;;;;;;;16.31;100.00;102864.66;5095325;28;20053;-31
2022/08/10 03:51:18;;;;;;;;;;;;;;;16.33;100.00;102853.94;5094901;28;19920;-31
2022/08/10 03:53:46;;;;;;;;;;;;;;;16.33;100.00;102851.97;5094918;28;19962;-31
2022/08/10 03:56:34;;;;;;;;;;;;;;;16.35;100.00;102858.16;5094850;28;19924;-35
2022/08/10 03:59:02;;;;;;;;;;;;;;;16.35;100.00;102848.84;5094474;28;19920;-32
2022/08/10 04:01:30;;;;;;;;;;;;;;;16.35;100.00;102854.50;5094977;28;20711;-32
2022/08/10 04:04:18;;;;;;;;;;;;;;;16.35;100.00;102860.13;5093771;28;20396;-36
2022/08/10 04:06:53;;;;;;;;;;;;;;;16.36;100.00;102850.53;5094587;28;19920;-35
2022/08/10 04:09:22;;;;;;;;;;;;;;;16.37;100.00;102850.25;5094511;28;19920;-36
2022/08/10 04:11:50;;;;;;;;;;;;;;;16.38;100.00;102848.28;5093916;28;19945;-31
2022/08/10 04:14:18;;;;;;;;;;;;;;;16.39;100.00;102859.22;5094218;28;19924;-31
2022/08/10 04:17:05;;;;;;;;;;;;;;;16.41;100.00;102856.97;5094304;28;20315;-30
2022/08/10 04:19:43;;;;;;;;;;;;;;;16.41;100.00;102848.50;5093029;28;19973;-31
2022/08/10 04:22:14;;;;;;;;;;;;;;;16.41;100.00;102853.31;5089073;28;19928;-40
2022/08/10 04:24:43;;;;;;;;;;;;;;;16.40;100.00;102855.28;5094322;28;19927;-31
2022/08/10 04:27:11;;;;;;;;;;;;;;;16.44;100.00;102855.53;5094464;28;19924;-31
2022/08/10 04:29:39;;;;;;;;;;;;;;;16.48;100.00;102859.47;5094279;28;19927;-42
2022/08/10 04:32:07;;;;;;;;;;;;;;;16.52;100.00;102852.97;5093487;28;19920;-30
2022/08/10 04:34:37;;;;;;;;;;;;;;;16.56;100.00;102856.06;5094424;28;20024;-31
2022/08/10 04:37:06;;;;;;;;;;;;;;;16.58;100.00;102865.06;5094366;28;20395;-31
2022/08/10 04:39:37;;;;;;;;;;;;;;;16.59;100.00;102855.44;5093563;28;19945;-31
2022/08/10 04:42:06;;;;;;;;;;;;;;;16.60;100.00;102861.94;5094179;28;20015;-35
2022/08/10 04:44:34;;;;;;;;;;;;;;;16.63;100.00;102861.34;5093612;28;19923;-31
2022/08/10 04:47:01;;;;;;;;;;;;;;;16.64;100.00;102861.09;5093337;28;19956;-39
2022/08/10 04:49:29;;;;;;;;;;;;;;;16.64;100.00;102858.28;5094085;28;19951;-31
2022/08/10 04:52:17;;;;;;;;;;;;;;;16.65;100.00;102854.31;5092337;28;19920;-33
2022/08/10 04:54:46;;;;;;;;;;;;;;;16.66;100.00;102861.66;5092958;28;20346;-32
2022/08/10 04:57:14;;;;;;;;;;;;;;;16.68;100.00;102850.09;5090318;28;19924;-34
2022/08/10 04:59:42;;;;;;;;;;;;;;;16.71;100.00;102856.00;5093925;28;20238;-39
2022/08/10 05:02:09;;;;;;;;;;;;;;;16.72;100.00;102860.50;5092945;28;19946;-37
2022/08/10 05:04:57;;;;;;;;;;;;;;;16.72;100.00;102860.50;5093770;28;19920;-34
2022/08/10 05:07:24;;;;;;;;;;;;;;;16.72;100.00;102860.50;5092251;28;19920;-31
2022/08/10 05:09:54;;;;;;;;;;;;;;;16.72;100.00;102856.84;5088157;28;19924;-31
2022/08/10 05:12:32;;;;;;;;;;;;;;;16.70;100.00;102857.13;5092310;28;20404;-41
2022/08/10 05:15:03;;;;;;;;;;;;;;;16.71;100.00;102858.81;5091971;28;19924;-31
2022/08/10 05:17:31;;;;;;;;;;;;;;;16.76;100.00;102861.59;5091725;28;19924;-33
2022/08/10 05:19:58;;;;;;;;;;;;;;;16.79;100.00;102849.72;5091247;28;19924;-31
2022/08/10 05:22:32;;;;;;;;;;;;;;;16.80;100.00;102857.03;5091431;28;19920;-35
2022/08/10 05:25:01;;;;;;;;;;;;;;;16.84;100.00;102857.28;5092560;28;19924;-33
2022/08/10 05:27:29;;;;;;;;;;;;;;;16.87;100.00;102857.56;5092099;28;19920;-39
2022/08/10 05:29:56;;;;;;;;;;;;;;;16.92;100.00;102853.88;5091845;28;19920;-32
2022/08/10 05:32:29;;;;;;;;;;;;;;;16.98;100.00;102857.50;5091925;28;19923;-41
2022/08/10 05:34:57;;;;;;;;;;;;;;;17.03;100.00;102854.63;5092198;28;19965;-36
2022/08/10 05:37:25;;;;;;;;;;;;;;;17.07;100.00;102855.72;5091168;28;19920;-31
2022/08/10 05:40:14;;;;;;;;;;;;;;;17.12;100.00;102850.03;5092239;28;20318;-32
2022/08/10 05:42:41;;;;;;;;;;;;;;;17.17;100.00;102850.00;5090845;28;19926;-37
2022/08/10 05:45:15;;;;;;;;;;;;;;;17.22;100.00;102853.59;5091998;28;19937;-31
2022/08/10 05:47:43;;;;;;;;;;;;;;;17.29;100.00;102849.59;5091952;28;19926;-38
2022/08/10 05:50:31;;;;;;;;;;;;;;;17.35;100.00;102849.25;5091429;28;19920;-33
2022/08/10 05:52:59;;;;;;;;;;;;;;;17.40;100.00;102854.84;5091731;28;19924;-31
2022/08/10 05:55:48;;;;;;;;;;;;;;;17.48;100.00;102861.84;5092036;28;19924;-42
2022/08/10 05:58:15;;;;;;;;;;;;;;;17.53;100.00;102859.81;5090701;28;19927;-34
2022/08/10 06:00:45;;;;;;;;;;;;;;;17.58;100.00;102870.22;5091784;28;20355;-31
2022/08/10 06:03:18;;;;;;;;;;;;;;;17.63;100.00;102869.31;5090780;28;19924;-33
2022/08/10 06:05:53;;;;;;;;;;;;;;;17.68;100.00;102867.31;5091813;28;19977;-32
2022/08/10 06:08:22;;;;;;;;;;;;;;;17.73;100.00;102860.78;5091666;28;19920;-32
2022/08/10 06:10:55;;;;;;;;;;;;;;;17.79;100.00;102871.69;5090628;28;20300;-29
2022/08/10 06:16:43;;;;;;;;;;;;;;;17.92;100.00;102869.31;5071534;28;20018;-36
2022/08/10 06:19:11;;;;;;;;;;;;;;;17.99;100.00;102870.63;5084000;28;19920;-32
2022/08/10 06:21:41;;;;;;;;;;;;;;;18.05;100.00;102872.25;5091197;28;19927;-31
2022/08/10 06:24:27;;;;;;;;;;;;;;;18.13;100.00;102865.09;5090191;28;20011;-31
2022/08/10 06:26:58;;;;;;;;;;;;;;;18.23;100.00;102862.13;5091476;28;19927;-35
2022/08/10 06:29:28;;;;;;;;;;;;;;;18.34;100.00;102863.69;5091208;28;19931;-37
2022/08/10 06:31:56;;;;;;;;;;;;;;;18.49;100.00;102869.13;5090654;28;19928;-31
2022/08/10 06:34:25;;;;;;;;;;;;;;;18.67;100.00;102873.16;5091518;28;19930;-32
2022/08/10 06:36:54;;;;;;;;;;;;;;;18.92;100.00;102867.09;5091401;28;19920;-31
2022/08/10 06:39:22;;;;;;;;;;;;;;;19.32;100.00;102870.41;5091437;28;20365;-40
2022/08/10 06:42:15;;;;;;;;;;;;;;;19.74;100.00;102880.72;5092529;28;19920;-31
2022/08/10 06:44:48;;;;;;;;;;;;;;;20.29;100.00;102869.38;5091976;28;19924;-36
2022/08/10 06:47:17;;;;;;;;;;;;;;;20.83;100.00;102874.13;5091665;28;19931;-35
2022/08/10 06:49:51;;;;;;;;;;;;;;;21.36;100.00;102867.75;5092096;28;19920;-40
2022/08/10 06:52:19;;;;;;;;;;;;;;;21.97;100.00;102868.91;5092289;28;19920;-31
2022/08/10 06:54:48;;;;;;;;;;;;;;;22.50;100.00;102862.25;5091180;28;19994;-31
2022/08/10 06:57:18;;;;;;;;;;;;;;;23.00;100.00;102868.31;5092247;28;19930;-35
2022/08/10 06:59:47;;;;;;;;;;;;;;;23.47;100.00;102860.72;5091006;28;19931;-31
2022/08/10 07:02:19;;;;;;;;;;;;;;;23.92;97.11;102860.28;5092320;28;19922;-36
2022/08/10 07:04:49;;;;;;;;;;;;;;;24.30;94.52;102858.28;5092095;28;19919;-39
2022/08/10 07:07:18;;;;;;;;;;;;;;;24.74;93.55;102864.53;5091395;28;19920;-31
2022/08/10 07:09:47;;;;;;;;;;;;;;;25.14;87.41;102869.78;5090201;28;20247;-34
2022/08/10 07:12:16;;;;;;;;;;;;;;;25.50;84.35;102869.06;5089348;28;19928;-34
2022/08/10 07:14:46;;;;;;;;;;;;;;;25.80;81.81;102864.03;5089415;28;19920;-38
2022/08/10 07:17:16;;;;;;;;;;;;;;;26.18;78.80;102872.31;5091638;28;19920;-38
2022/08/10 07:19:45;;;;;;;;;;;;;;;26.53;77.74;102866.94;5091182;28;19924;-40
2022/08/10 07:22:20;;;;;;;;;;;;;;;26.93;74.73;102873.53;5090538;28;20007;-37
2022/08/10 07:25:08;;;;;;;;;;;;;;;27.24;71.61;102877.75;5091744;28;19935;-35
2022/08/10 07:27:37;;;;;;;;;;;;;;;27.48;69.19;102874.78;5091687;28;19926;-37
2022/08/10 07:30:28;;;;;;;;;;;;;;;27.79;68.74;102869.09;5092487;28;19926;-33
2022/08/10 07:32:55;;;;;;;;;;;;;;;28.20;68.41;102877.56;5084566;28;19920;-39
2022/08/10 07:35:24;;;;;;;;;;;;;;;28.44;65.14;102866.69;5094358;28;19988;-39
2022/08/10 07:37:52;;;;;;;;;;;;;;;28.65;62.23;102871.28;5094948;28;19920;-42
2022/08/10 07:40:21;;;;;;;;;;;;;;;28.87;62.90;102870.59;5095104;28;19920;-41
2022/08/10 07:42:50;;;;;;;;;;;;;;;29.16;59.27;102874.09;5094476;28;19920;-38
2022/08/10 07:45:18;;;;;;;;;;;;;;;29.40;60.97;102879.53;5095078;28;19920;-39
2022/08/10 07:47:51;;;;;;;;;;;;;;;29.57;55.88;102872.50;5095370;28;19935;-37
2022/08/10 07:50:23;;;;;;;;;;;;;;;29.69;58.15;102878.88;5094925;28;20331;-41
2022/08/10 07:52:51;;;;;;;;;;;;;;;30.02;57.99;102874.56;5094671;28;20438;-40
2022/08/10 07:55:20;;;;;;;;;;;;;;;30.35;55.42;102876.78;5095232;28;19986;-34
2022/08/10 07:58:09;;;;;;;;;;;;;;;30.69;54.82;102877.75;5094254;28;19920;-36
2022/08/10 08:00:37;;;;;;;;;;;;;;;30.95;53.42;102874.81;5095220;28;20026;-34
2022/08/10 08:03:08;;;;;;;;;;;;;;;31.22;50.58;102883.41;5093981;28;20284;-40
2022/08/10 08:05:35;;;;;;;;;;;;;;;31.27;50.66;102862.88;5095340;28;19920;-39
2022/08/10 08:08:24;;;;;;;;;;;;;;;31.49;50.37;102871.41;5094860;28;19920;-41
2022/08/10 08:10:55;;;;;;;;;;;;;;;31.61;48.77;102872.31;5093850;28;20356;-39
2022/08/10 08:13:24;;;;;;;;;;;;;;;31.39;47.20;102871.25;5094576;28;19942;-37
2022/08/10 08:15:53;;;;;;;;;;;;;;;31.36;50.09;102866.31;5094888;28;19927;-38
2022/08/10 08:18:43;;;;;;;;;;;;;;;31.63;49.69;102855.44;5092511;28;20270;-40
2022/08/10 08:21:31;;;;;;;;;;;;;;;32.01;49.34;102862.84;5094813;28;19920;-41
2022/08/10 08:24:19;;;;;;;;;;;;;;;32.27;46.80;102862.69;5093908;28;19920;-40
2022/08/10 08:27:01;;;;;;;;;;;;;;;32.47;46.87;102860.38;5094415;28;19935;-36
2022/08/10 08:29:31;;;;;;;;;;;;;;;32.70;45.88;102857.22;5094266;28;20340;-39
2022/08/10 08:31:58;;;;;;;;;;;;;;;32.86;44.04;102854.84;5093607;28;19926;-40
2022/08/10 08:34:30;;;;;;;;;;;;;;;32.79;43.55;102852.72;5090899;28;19946;-35
2022/08/10 08:36:58;;;;;;;;;;;;;;;32.75;44.09;102857.69;5094278;28;20327;-35
2022/08/10 08:39:26;;;;;;;;;;;;;;;32.66;43.97;102865.03;5092946;28;20381;-39
2022/08/10 08:42:03;;;;;;;;;;;;;;;32.45;44.72;102859.94;5093297;28;20345;-34
2022/08/10 08:44:34;;;;;;;;;;;;;;;32.41;45.01;102856.19;5094026;28;19919;-40
2022/08/10 08:47:07;;;;;;;;;;;;;;;32.53;44.93;102856.69;5093392;28;19920;-39
2022/08/10 08:50:06;;;;;;;;;;;;;;;32.73;45.07;102860.16;5093970;28;20324;-40
2022/08/10 08:52:43;;;;;;;;;;;;;;;32.96;43.79;102868.53;5093543;28;20018;-40
2022/08/10 08:55:19;;;;;;;;;;;;;;;33.15;42.02;102865.31;5091093;28;19920;-40
2022/08/10 08:58:13;;;;;;;;;;;;;;;33.17;42.14;102862.81;5093833;28;19924;-37
2022/08/10 09:00:43;;;;;;;;;;;;;;;33.22;42.02;102862.44;5093090;28;19943;-37
2022/08/10 09:03:20;;;;;;;;;;;;;;;33.44;43.13;102865.44;5093873;28;20012;-40
2022/08/10 09:06:04;;;;;;;;;;;;;;;33.57;41.63;102855.13;5094049;28;19990;-40
2022/08/10 09:08:52;;;;;;;;;;;;;;;33.73;41.25;102860.53;5093576;28;19927;-41
2022/08/10 09:11:29;;;;;;;;;;;;;;;33.64;39.59;102852.22;5088916;28;19930;-37
2022/08/10 09:14:01;;;;;;;;;;;;;;;33.43;39.98;102849.28;5092675;28;19927;-39
2022/08/10 09:16:34;;;;;;;;;;;;;;;33.17;40.33;102851.25;5093665;28;19919;-37
2022/08/10 09:19:06;;;;;;;;;;;;;;;33.04;41.69;102852.84;5093460;28;19930;-40
2022/08/10 09:21:42;;;;;;;;;;;;;;;33.08;41.70;102836.34;5088215;28;19923;-37
2022/08/10 09:24:34;;;;;;;;;;;;;;;32.88;42.35;102849.47;5093483;28;19920;-36
2022/08/10 09:27:07;;;;;;;;;;;;;;;33.03;42.90;102838.78;5093525;28;19920;-41
2022/08/10 09:29:42;;;;;;;;;;;;;;;33.29;42.62;102841.41;5092498;28;19919;-35
2022/08/10 09:32:11;;;;;;;;;;;;;;;33.54;41.80;102836.50;5093267;28;19931;-38
2022/08/10 09:35:03;;;;;;;;;;;;;;;33.76;40.76;102836.53;5092585;28;19928;-39
2022/08/10 09:37:58;;;;;;;;;;;;;;;33.79;39.06;102830.75;5093224;28;19928;-40
2022/08/10 09:40:38;;;;;;;;;;;;;;;33.67;38.60;102831.16;5093078;28;19958;-39
2022/08/10 09:43:30;;;;;;;;;;;;;;;33.62;41.34;102830.72;5092311;28;19924;-39
2022/08/10 09:46:05;;;;;;;;;;;;;;;33.84;41.14;102827.47;5092426;28;19924;-40
2022/08/10 09:48:44;;;;;;;;;;;;;;;34.11;39.74;102835.75;5092360;28;19923;-40
2022/08/10 09:51:14;;;;;;;;;;;;;;;34.24;39.16;102822.47;5092702;28;19920;-39
2022/08/10 09:54:07;;;;;;;;;;;;;;;34.41;39.37;102817.91;5072171;28;19920;-41
2022/08/10 09:56:41;;;;;;;;;;;;;;;34.68;39.31;102824.06;5088874;28;19926;-39
2022/08/10 09:59:13;;;;;;;;;;;;;;;34.97;37.95;102822.75;5092843;28;19924;-41
2022/08/10 10:02:09;;;;;;;;;;;;;;;35.12;37.81;102824.31;5092226;28;19973;-42
2022/08/10 10:04:40;;;;;;;;;;;;;;;35.18;37.16;102810.19;5091930;28;19927;-36
2022/08/10 10:07:10;;;;;;;;;;;;;;;35.18;36.28;102813.91;5092227;28;19924;-33
2022/08/10 10:09:43;;;;;;;;;;;;;;;35.22;36.87;102808.09;5091797;28;20003;-40
2022/08/10 10:12:15;;;;;;;;;;;;;;;35.29;37.06;102801.44;5092358;28;19978;-39
2022/08/10 10:17:42;;;;;;;;;;;;;;;35.30;36.36;102803.94;5091178;28;20285;-41
2022/08/10 10:20:15;;;;;;;;;;;;;;;35.08;35.74;102800.28;5092912;28;19920;-38
2022/08/10 10:22:49;;;;;;;;;;;;;;;34.98;36.67;102791.63;5092059;28;19920;-41
2022/08/10 10:25:22;;;;;;;;;;;;;;;34.99;36.08;102793.28;5091846;28;19920;-41
2022/08/10 10:28:14;;;;;;;;;;;;;;;35.16;35.95;102789.47;5091601;28;19969;-42
2022/08/10 10:30:48;;;;;;;;;;;;;;;35.13;35.87;102785.34;5092122;28;19920;-42
2022/08/10 10:33:20;;;;;;;;;;;;;;;35.25;36.85;102789.81;5092393;28;19927;-41
2022/08/10 10:35:50;;;;;;;;;;;;;;;35.49;37.02;102788.03;5092599;28;19924;-40
2022/08/10 10:38:19;;;;;;;;;;;;;;;35.75;36.06;102787.41;5091432;28;19928;-40
2022/08/10 10:40:52;;;;;;;;;;;;;;;35.77;35.13;102782.00;5090822;28;20337;-41
2022/08/10 10:43:32;;;;;;;;;;;;;;;35.67;35.88;102785.81;5092324;28;19935;-40
2022/08/10 10:46:04;;;;;;;;;;;;;;;35.68;35.10;102777.94;5091192;28;19935;-39
2022/08/10 10:48:38;;;;;;;;;;;;;;;35.54;34.94;102779.69;5091972;28;19920;-40
2022/08/10 10:51:09;;;;;;;;;;;;;;;35.50;35.25;102780.97;5092330;28;19920;-38
2022/08/10 10:53:43;;;;;;;;;;;;;;;35.23;35.33;102775.72;5090838;28;19963;-41
2022/08/10 10:56:16;;;;;;;;;;;;;;;35.28;34.41;102771.59;5091692;28;19920;-41
2022/08/10 10:58:48;;;;;;;;;;;;;;;35.28;35.23;102770.75;5089598;28;20011;-41
2022/08/10 11:01:25;;;;;;;;;;;;;;;35.24;36.63;102776.56;5089427;28;19966;-43
2022/08/10 11:04:01;;;;;;;;;;;;;;;35.12;35.85;102771.25;5091460;28;19958;-39
2022/08/10 11:06:37;;;;;;;;;;;;;;;35.06;36.47;102770.88;5094197;28;19931;-41
2022/08/10 11:09:10;;;;;;;;;;;;;;;35.04;36.89;102764.66;5095687;28;19946;-40
2022/08/10 11:12:03;;;;;;;;;;;;;;;35.19;36.83;102750.88;5075495;28;19931;-35
2022/08/10 11:14:36;;;;;;;;;;;;;;;35.30;35.87;102751.66;5094598;28;20440;-40
2022/08/10 11:17:11;;;;;;;;;;;;;;;35.27;36.65;102746.69;5096139;28;19932;-41
2022/08/10 11:19:40;;;;;;;;;;;;;;;35.35;36.96;102747.50;5095748;28;19927;-40
2022/08/10 11:22:30;;;;;;;;;;;;;;;35.43;36.97;102749.91;5075685;28;19920;-38
2022/08/10 11:25:08;;;;;;;;;;;;;;;35.48;36.18;102734.94;5095336;28;20301;-40
2022/08/10 11:27:41;;;;;;;;;;;;;;;35.47;36.61;102732.47;5095238;28;19943;-42
2022/08/10 11:30:12;;;;;;;;;;;;;;;35.33;34.64;102736.31;5094556;28;19924;-32
2022/08/10 11:32:46;;;;;;;;;;;;;;;35.16;36.81;102746.75;5095397;28;19931;-33
2022/08/10 11:35:20;;;;;;;;;;;;;;;35.27;37.13;102734.25;5094686;28;19920;-32
2022/08/10 11:37:49;;;;;;;;;;;;;;;35.26;36.45;102736.31;5095848;28;19953;-34
2022/08/10 11:40:42;;;;;;;;;;;;;;;35.15;36.72;102730.59;5095545;28;19973;-33
2022/08/10 11:43:14;;;;;;;;;;;;;;;35.26;36.34;102732.59;5094713;28;19924;-32
2022/08/10 11:45:42;;;;;;;;;;;;;;;35.33;36.82;102732.56;5093521;28;19971;-34
2022/08/10 11:48:27;;;;;;;;;;;;;;;35.32;36.42;102733.81;5094655;28;19956;-37
2022/08/10 11:51:19;;;;;;;;;;;;;;;35.27;36.67;102734.25;5093763;28;19961;-37
2022/08/10 11:53:49;;;;;;;;;;;;;;;35.30;37.06;102730.53;5095166;28;19924;-32
2022/08/10 11:56:24;;;;;;;;;;;;;;;35.30;35.22;102731.34;5094794;28;19920;-32
2022/08/10 12:01:45;;;;;;;;;;;;;;;34.97;37.35;102729.88;5094649;28;20393;-36
2022/08/10 12:04:14;;;;;;;;;;;;;;;34.92;35.95;102732.41;5093902;28;20010;-36
2022/08/10 12:06:42;;;;;;;;;;;;;;;34.90;36.75;102732.81;5095210;28;19920;-34
2022/08/10 12:09:26;;;;;;;;;;;;;;;34.78;36.35;102715.88;5094116;28;19969;-42
2022/08/10 12:12:13;;;;;;;;;;;;;;;34.71;37.25;102716.72;5094953;28;20288;-31
2022/08/10 12:14:46;;;;;;;;;;;;;;;34.82;36.87;102719.59;5094542;28;19971;-36
2022/08/10 12:17:16;;;;;;;;;;;;;;;34.89;36.57;102714.59;5092972;28;20391;-32
2022/08/10 12:19:45;;;;;;;;;;;;;;;34.93;37.00;102714.56;5094365;28;20331;-38
2022/08/10 12:22:31;;;;;;;;;;;;;;;34.73;37.09;102710.50;5083709;28;20014;-35
2022/08/10 12:25:00;;;;;;;;;;;;;;;34.65;37.27;102705.97;5093515;28;20608;-32
2022/08/10 12:27:31;;;;;;;;;;;;;;;34.63;36.71;102702.69;5094501;28;19927;-34
2022/08/10 12:30:03;;;;;;;;;;;;;;;34.53;37.51;102702.31;5094183;28;20380;-35
2022/08/10 12:32:33;;;;;;;;;;;;;;;34.41;36.94;102699.88;5094452;28;19920;-32
2022/08/10 12:35:04;;;;;;;;;;;;;;;34.31;37.67;102700.75;5094390;28;19927;-33
2022/08/10 12:37:35;;;;;;;;;;;;;;;34.28;37.67;102692.88;5093584;28;19923;-34
2022/08/10 12:40:05;;;;;;;;;;;;;;;34.24;38.04;102694.94;5094262;28;20389;-40
2022/08/10 12:42:56;;;;;;;;;;;;;;;34.09;37.49;102684.66;5091915;28;20315;-32
2022/08/10 12:45:50;;;;;;;;;;;;;;;34.01;38.03;102691.69;5093049;28;19927;-31
2022/08/10 12:48:23;;;;;;;;;;;;;;;34.00;38.64;102690.88;5094276;28;20388;-36
2022/08/10 12:50:59;;;;;;;;;;;;;;;34.02;38.67;102688.38;5094017;28;19955;-31
2022/08/10 12:53:33;;;;;;;;;;;;;;;33.94;38.80;102685.94;5093247;28;19924;-32
2022/08/10 12:56:02;;;;;;;;;;;;;;;33.88;38.34;102689.25;5093201;28;20384;-31
2022/08/10 12:58:31;;;;;;;;;;;;;;;33.94;38.86;102691.72;5091911;28;19924;-33
2022/08/10 13:01:23;;;;;;;;;;;;;;;33.86;38.77;102680.16;5093920;28;19931;-32
2022/08/10 13:03:51;;;;;;;;;;;;;;;33.79;38.83;102679.31;5093952;28;19920;-34
2022/08/10 13:06:41;;;;;;;;;;;;;;;33.53;39.15;102677.69;5092818;28;19928;-36
2022/08/10 13:09:08;;;;;;;;;;;;;;;33.41;40.47;102672.28;5093523;28;20369;-32
2022/08/10 13:11:38;;;;;;;;;;;;;;;33.55;40.26;102669.41;5093373;28;19966;-38